Time;durP1;ratioP1;P1;durP2;ratioP2;P2;SDS_P1;SDS_P2;PMS_P1;PMS_P2;Temp;Humidity;BMP_temperature;BMP_pressure;BME280_temperature;BME280_humidity;BME280_pressure;Samples;Min_cycle;Max_cycle;Signal;HPM_P1;HPM_P2
2023/07/03 00:00:42;;;;;;;12.98;4.07;;;;;;;;;;5003598;28;20386;-71
2023/07/03 00:03:08;;;;;;;11.50;4.00;;;;;;;;;;5014194;28;20070;-71
2023/07/03 00:05:35;;;;;;;11.38;3.80;;;;;;;;;;5014216;28;20045;-72
2023/07/03 00:08:00;;;;;;;11.20;3.85;;;;;;;;;;5004510;28;20026;-71
2023/07/03 00:10:25;;;;;;;12.32;4.05;;;;;;;;;;4999291;28;20022;-71
2023/07/03 00:12:51;;;;;;;9.95;4.05;;;;;;;;;;5000776;28;20065;-71
2023/07/03 00:15:16;;;;;;;11.27;3.92;;;;;;;;;;5005755;28;20019;-71
2023/07/03 00:17:44;;;;;;;10.40;3.85;;;;;;;;;;5014778;28;20084;-71
2023/07/03 00:20:13;;;;;;;11.88;4.38;;;;;;;;;;5008975;28;20033;-71
2023/07/03 00:22:39;;;;;;;11.15;4.30;;;;;;;;;;5002295;28;20026;-71
2023/07/03 00:25:04;;;;;;;11.88;3.58;;;;;;;;;;5012867;28;20478;-71
2023/07/03 00:27:29;;;;;;;13.52;4.40;;;;;;;;;;5002149;28;20025;-71
2023/07/03 00:29:55;;;;;;;12.68;4.32;;;;;;;;;;5001442;28;20061;-71
2023/07/03 00:32:20;;;;;;;13.65;4.32;;;;;;;;;;5004269;28;20026;-71
2023/07/03 00:34:45;;;;;;;14.90;5.18;;;;;;;;;;5011017;28;20508;-71
2023/07/03 00:37:11;;;;;;;15.45;4.28;;;;;;;;;;5003415;28;20524;-71
2023/07/03 00:39:36;;;;;;;11.43;3.95;;;;;;;;;;5005954;28;20049;-71
2023/07/03 00:42:02;;;;;;;16.08;4.57;;;;;;;;;;5010889;28;20049;-71
2023/07/03 00:44:28;;;;;;;10.93;4.22;;;;;;;;;;5004474;28;20028;-71
2023/07/03 00:46:53;;;;;;;10.93;4.30;;;;;;;;;;5003595;28;20030;-71
2023/07/03 00:49:20;;;;;;;13.18;4.53;;;;;;;;;;4999891;28;20025;-71
2023/07/03 00:51:55;;;;;;;14.65;4.50;;;;;;;;;;4995570;28;20045;-71
2023/07/03 00:54:21;;;;;;;13.25;5.05;;;;;;;;;;4997005;28;20022;-72
2023/07/03 00:56:46;;;;;;;14.30;5.60;;;;;;;;;;4995869;28;20033;-72
2023/07/03 00:59:12;;;;;;;13.23;4.28;;;;;;;;;;4995628;28;20101;-72
2023/07/03 01:04:17;;;;;;;13.00;4.75;;;;;;;;;;5026495;28;20053;-62
2023/07/03 01:06:46;;;;;;;12.23;4.35;;;;;;;;;;5028468;28;20040;-63
2023/07/03 01:09:12;;;;;;;10.60;4.43;;;;;;;;;;5027325;28;20029;-62
2023/07/03 01:11:37;;;;;;;15.77;4.55;;;;;;;;;;5021722;28;20025;-62
2023/07/03 01:14:03;;;;;;;12.23;4.72;;;;;;;;;;5023921;28;20404;-62
2023/07/03 01:16:31;;;;;;;13.05;4.70;;;;;;;;;;5026281;28;20034;-62
2023/07/03 01:18:58;;;;;;;13.75;5.13;;;;;;;;;;5022126;28;20116;-62
2023/07/03 01:21:28;;;;;;;17.40;5.13;;;;;;;;;;5025924;28;20447;-62
2023/07/03 01:23:57;;;;;;;14.27;4.60;;;;;;;;;;5024590;28;20021;-62
2023/07/03 01:26:25;;;;;;;15.73;4.90;;;;;;;;;;5018309;28;20014;-62
2023/07/03 01:28:53;;;;;;;18.67;4.60;;;;;;;;;;5025206;28;20066;-62
2023/07/03 01:31:19;;;;;;;16.02;4.65;;;;;;;;;;5029312;28;20477;-62
2023/07/03 01:33:45;;;;;;;18.52;4.43;;;;;;;;;;5022124;28;20102;-62
2023/07/03 01:36:12;;;;;;;15.15;4.80;;;;;;;;;;5025003;28;20061;-62
2023/07/03 01:38:38;;;;;;;10.85;4.00;;;;;;;;;;5030762;28;20022;-62
2023/07/03 01:41:03;;;;;;;12.77;4.20;;;;;;;;;;5014030;28;20018;-62
2023/07/03 01:43:29;;;;;;;16.55;5.13;;;;;;;;;;5022268;28;20080;-62
2023/07/03 01:45:55;;;;;;;19.83;5.63;;;;;;;;;;5030208;28;20025;-62
2023/07/03 01:48:20;;;;;;;13.13;4.43;;;;;;;;;;5021329;28;20110;-63
2023/07/03 01:50:46;;;;;;;15.68;4.82;;;;;;;;;;5025209;28;20450;-62
2023/07/03 01:53:23;;;;;;;13.38;5.00;;;;;;;;;;5014156;28;20029;-62
2023/07/03 01:56:10;;;;;;;16.70;4.80;;;;;;;;;;5020306;28;20041;-62
2023/07/03 01:58:59;;;;;;;16.00;4.72;;;;;;;;;;5019179;28;20550;-62
2023/07/03 02:01:27;;;;;;;17.17;5.15;;;;;;;;;;5008961;28;20055;-62
2023/07/03 02:03:54;;;;;;;16.15;4.63;;;;;;;;;;5029564;28;20120;-62
2023/07/03 02:06:28;;;;;;;14.93;4.55;;;;;;;;;;5025241;28;20017;-62
2023/07/03 02:08:53;;;;;;;15.13;5.82;;;;;;;;;;5019506;28;20072;-62
2023/07/03 02:11:20;;;;;;;15.80;4.47;;;;;;;;;;5024973;28;20484;-62
2023/07/03 02:13:45;;;;;;;14.95;4.53;;;;;;;;;;5019150;28;20390;-62
2023/07/03 02:16:10;;;;;;;19.08;4.68;;;;;;;;;;5024916;28;20161;-67
2023/07/03 02:18:36;;;;;;;18.40;5.40;;;;;;;;;;5020448;28;22084;-67
2023/07/03 02:21:02;;;;;;;15.98;4.68;;;;;;;;;;5018269;28;20033;-67
2023/07/03 02:23:28;;;;;;;16.10;5.00;;;;;;;;;;5021071;28;20099;-67
2023/07/03 02:25:53;;;;;;;17.77;5.18;;;;;;;;;;5018552;28;20025;-67
2023/07/03 02:28:18;;;;;;;13.13;4.55;;;;;;;;;;5023556;28;20041;-67
2023/07/03 02:30:43;;;;;;;16.63;4.50;;;;;;;;;;5023223;28;20048;-67
2023/07/03 02:33:10;;;;;;;17.67;5.47;;;;;;;;;;5027457;28;20030;-67
2023/07/03 02:35:37;;;;;;;16.65;4.95;;;;;;;;;;5023241;28;20032;-67
2023/07/03 02:38:02;;;;;;;16.80;4.35;;;;;;;;;;5029758;28;20079;-67
2023/07/03 02:40:28;;;;;;;14.10;4.30;;;;;;;;;;5028403;28;20025;-67
2023/07/03 02:42:53;;;;;;;17.27;4.22;;;;;;;;;;5031003;28;20036;-67
2023/07/03 02:45:19;;;;;;;17.60;4.72;;;;;;;;;;5029835;28;20025;-67
2023/07/03 02:47:45;;;;;;;21.45;4.72;;;;;;;;;;5030054;28;20049;-67
2023/07/03 02:50:10;;;;;;;14.38;4.50;;;;;;;;;;5028439;28;20060;-67
2023/07/03 02:52:36;;;;;;;16.35;4.85;;;;;;;;;;5019191;28;20105;-62
2023/07/03 02:55:01;;;;;;;15.57;4.70;;;;;;;;;;5022577;28;20026;-62
2023/07/03 02:57:27;;;;;;;15.57;4.50;;;;;;;;;;5023256;28;20025;-61
2023/07/03 02:59:52;;;;;;;15.93;4.85;;;;;;;;;;5029730;28;20306;-62
2023/07/03 03:02:18;;;;;;;19.05;5.20;;;;;;;;;;5024262;28;20056;-62
2023/07/03 03:04:45;;;;;;;15.88;4.40;;;;;;;;;;5022120;28;20029;-62
2023/07/03 03:07:11;;;;;;;18.55;4.75;;;;;;;;;;5027658;28;20859;-62
2023/07/03 03:09:36;;;;;;;18.83;4.88;;;;;;;;;;5024909;28;20100;-62
2023/07/03 03:12:01;;;;;;;13.77;4.30;;;;;;;;;;5022385;28;20038;-62
2023/07/03 03:14:26;;;;;;;20.02;4.72;;;;;;;;;;5024062;28;20037;-62
2023/07/03 03:16:52;;;;;;;14.70;4.38;;;;;;;;;;5022182;28;20040;-61
2023/07/03 03:19:17;;;;;;;21.73;4.85;;;;;;;;;;5025430;28;20453;-62
2023/07/03 03:21:42;;;;;;;22.77;4.78;;;;;;;;;;5024613;28;20041;-62
2023/07/03 03:24:07;;;;;;;21.33;4.80;;;;;;;;;;5021416;28;20034;-62
2023/07/03 03:26:33;;;;;;;18.10;5.25;;;;;;;;;;5024905;28;20025;-62
2023/07/03 03:28:58;;;;;;;17.58;4.95;;;;;;;;;;5022683;28;20042;-62
2023/07/03 03:31:23;;;;;;;17.73;4.50;;;;;;;;;;5023427;28;20488;-62
2023/07/03 03:33:49;;;;;;;18.60;4.78;;;;;;;;;;5023854;28;20037;-61
2023/07/03 03:36:14;;;;;;;16.95;4.45;;;;;;;;;;5025637;28;20381;-62
2023/07/03 03:38:40;;;;;;;13.15;4.43;;;;;;;;;;5023306;28;20140;-62
2023/07/03 03:41:05;;;;;;;15.48;4.28;;;;;;;;;;5021284;28;20537;-62
2023/07/03 03:43:30;;;;;;;16.70;4.55;;;;;;;;;;5023384;28;20018;-62
2023/07/03 03:45:56;;;;;;;15.80;4.57;;;;;;;;;;5018568;28;20036;-62
2023/07/03 03:48:22;;;;;;;21.63;4.60;;;;;;;;;;5023546;28;20036;-62
2023/07/03 03:50:47;;;;;;;21.13;4.88;;;;;;;;;;5019750;28;20026;-62
2023/07/03 03:53:13;;;;;;;14.73;5.15;;;;;;;;;;5028663;28;20389;-62
2023/07/03 03:55:38;;;;;;;18.75;4.65;;;;;;;;;;5023401;28;20084;-62
2023/07/03 03:58:03;;;;;;;20.13;5.43;;;;;;;;;;5023705;28;20436;-61
2023/07/03 04:00:29;;;;;;;19.63;4.60;;;;;;;;;;5024174;28;20103;-62
2023/07/03 04:02:54;;;;;;;13.75;4.35;;;;;;;;;;5021211;28;20074;-62
2023/07/03 04:05:20;;;;;;;19.00;5.10;;;;;;;;;;5019194;28;20079;-62
2023/07/03 04:07:45;;;;;;;14.23;4.32;;;;;;;;;;5019911;28;20484;-62
2023/07/03 04:10:11;;;;;;;20.23;5.07;;;;;;;;;;5025970;28;20109;-61
2023/07/03 04:12:36;;;;;;;17.02;4.70;;;;;;;;;;5025134;28;20109;-62
2023/07/03 04:15:03;;;;;;;17.40;4.50;;;;;;;;;;5022262;28;20126;-62
2023/07/03 04:17:28;;;;;;;17.02;4.25;;;;;;;;;;5021094;28;20026;-62
2023/07/03 04:19:53;;;;;;;13.98;4.18;;;;;;;;;;5017699;28;20386;-62
2023/07/03 04:22:19;;;;;;;17.48;4.30;;;;;;;;;;5018974;28;20022;-62
2023/07/03 04:24:44;;;;;;;15.73;4.25;;;;;;;;;;5023474;28;20097;-62
2023/07/03 04:27:10;;;;;;;15.32;4.63;;;;;;;;;;5029344;28;20083;-61
2023/07/03 04:29:36;;;;;;;21.42;4.28;;;;;;;;;;5027261;28;20049;-61
2023/07/03 04:32:02;;;;;;;16.38;3.80;;;;;;;;;;5030166;28;20064;-61
2023/07/03 04:34:27;;;;;;;11.70;4.03;;;;;;;;;;5032625;28;20083;-62
2023/07/03 04:36:52;;;;;;;14.52;3.92;;;;;;;;;;5031219;28;20021;-62
2023/07/03 04:39:18;;;;;;;17.65;3.97;;;;;;;;;;5034639;28;20049;-61
2023/07/03 04:41:43;;;;;;;15.13;3.70;;;;;;;;;;5031992;28;20715;-62
2023/07/03 04:44:12;;;;;;;17.65;4.40;;;;;;;;;;5031349;28;20101;-61
2023/07/03 04:46:38;;;;;;;13.70;3.60;;;;;;;;;;5031069;28;20037;-61
2023/07/03 04:49:03;;;;;;;16.60;3.95;;;;;;;;;;5032266;28;20029;-62
2023/07/03 04:51:30;;;;;;;14.50;3.70;;;;;;;;;;5031245;28;20040;-62
2023/07/03 04:53:56;;;;;;;19.35;3.95;;;;;;;;;;5032780;28;20129;-62
2023/07/03 04:56:23;;;;;;;16.38;3.80;;;;;;;;;;5031309;28;20100;-62
2023/07/03 04:58:48;;;;;;;13.07;4.07;;;;;;;;;;5027624;28;20525;-62
2023/07/03 05:01:14;;;;;;;16.90;4.13;;;;;;;;;;5026013;28;20037;-62
2023/07/03 05:03:39;;;;;;;15.90;4.57;;;;;;;;;;5030186;28;20432;-62
2023/07/03 05:06:05;;;;;;;24.08;4.95;;;;;;;;;;5032504;28;20084;-62
2023/07/03 05:08:30;;;;;;;18.15;4.57;;;;;;;;;;5032930;28;20033;-61
2023/07/03 05:10:55;;;;;;;15.65;4.70;;;;;;;;;;5033285;28;20026;-61
2023/07/03 05:13:20;;;;;;;17.50;4.60;;;;;;;;;;5033867;28;20451;-61
2023/07/03 05:15:46;;;;;;;21.08;4.35;;;;;;;;;;5028830;28;20542;-61
2023/07/03 05:18:11;;;;;;;14.88;4.20;;;;;;;;;;5034214;28;20110;-61
2023/07/03 05:20:36;;;;;;;20.23;5.05;;;;;;;;;;5034245;28;20021;-61
2023/07/03 05:23:02;;;;;;;16.35;4.53;;;;;;;;;;5029405;28;20382;-61
2023/07/03 05:25:27;;;;;;;18.48;5.15;;;;;;;;;;5029577;28;20461;-61
2023/07/03 05:27:52;;;;;;;18.80;5.15;;;;;;;;;;5029471;28;20017;-61
2023/07/03 05:30:18;;;;;;;15.45;3.97;;;;;;;;;;5032248;28;20030;-61
2023/07/03 05:32:43;;;;;;;13.95;3.63;;;;;;;;;;5030470;28;20461;-60
2023/07/03 05:35:09;;;;;;;15.63;4.30;;;;;;;;;;5033203;28;20083;-61
2023/07/03 05:37:35;;;;;;;16.83;4.70;;;;;;;;;;5032417;28;20025;-59
2023/07/03 05:40:01;;;;;;;18.55;4.45;;;;;;;;;;5032962;28;20144;-58
2023/07/03 05:42:26;;;;;;;14.98;3.72;;;;;;;;;;5032826;28;20041;-59
2023/07/03 05:44:51;;;;;;;16.80;4.20;;;;;;;;;;5032477;28;20036;-59
2023/07/03 05:47:17;;;;;;;11.43;3.35;;;;;;;;;;5030152;28;20068;-59
2023/07/03 05:49:42;;;;;;;16.08;4.32;;;;;;;;;;5033949;28;20036;-59
2023/07/03 05:52:09;;;;;;;16.63;4.28;;;;;;;;;;5029828;28;20376;-59
2023/07/03 05:54:34;;;;;;;14.73;3.95;;;;;;;;;;5028336;28;20029;-59
2023/07/03 05:57:02;;;;;;;15.73;3.90;;;;;;;;;;5017648;28;20390;-58
2023/07/03 05:59:27;;;;;;;15.10;3.70;;;;;;;;;;5021945;28;20029;-59
2023/07/03 06:01:54;;;;;;;20.85;4.18;;;;;;;;;;5032928;28;20032;-59
2023/07/03 06:04:22;;;;;;;18.45;4.70;;;;;;;;;;5023589;28;20033;-58
2023/07/03 06:06:47;;;;;;;16.33;3.88;;;;;;;;;;5021049;28;20035;-59
2023/07/03 06:09:13;;;;;;;12.93;3.38;;;;;;;;;;5033696;28;20430;-58
2023/07/03 06:11:38;;;;;;;15.88;3.83;;;;;;;;;;5032447;28;20508;-59
2023/07/03 06:14:04;;;;;;;14.77;3.92;;;;;;;;;;5032577;28;20048;-59
2023/07/03 06:16:34;;;;;;;22.45;4.78;;;;;;;;;;5033965;28;20021;-59
2023/07/03 06:18:59;;;;;;;12.90;3.50;;;;;;;;;;5018748;28;20137;-58
2023/07/03 06:21:24;;;;;;;18.00;3.80;;;;;;;;;;5014263;28;20490;-58
2023/07/03 06:23:50;;;;;;;13.73;3.38;;;;;;;;;;5014068;28;20030;-59
2023/07/03 06:26:15;;;;;;;17.48;3.88;;;;;;;;;;5014320;28;20026;-59
2023/07/03 06:28:40;;;;;;;18.75;4.38;;;;;;;;;;5014174;28;20057;-59
2023/07/03 06:31:05;;;;;;;17.60;3.85;;;;;;;;;;5016810;28;20449;-59
2023/07/03 06:33:31;;;;;;;12.45;3.70;;;;;;;;;;5013903;28;20033;-59
2023/07/03 06:35:56;;;;;;;16.17;3.88;;;;;;;;;;5014158;28;20092;-59
2023/07/03 06:38:21;;;;;;;13.77;3.55;;;;;;;;;;5013695;28;20036;-60
2023/07/03 06:40:57;;;;;;;14.77;3.88;;;;;;;;;;5014087;28;20033;-59
2023/07/03 06:43:22;;;;;;;21.33;5.03;;;;;;;;;;5013673;28;20025;-59
2023/07/03 06:45:47;;;;;;;18.50;4.20;;;;;;;;;;5013953;28;20029;-59
2023/07/03 06:48:13;;;;;;;13.73;3.67;;;;;;;;;;5013645;28;20037;-59
2023/07/03 06:50:38;;;;;;;16.35;4.15;;;;;;;;;;5013559;28;20088;-59
2023/07/03 06:53:03;;;;;;;14.48;3.78;;;;;;;;;;5013563;28;20036;-59
2023/07/03 06:55:28;;;;;;;15.80;3.40;;;;;;;;;;5013919;28;20026;-59
2023/07/03 06:57:54;;;;;;;16.10;3.08;;;;;;;;;;5013706;28;20466;-59
2023/07/03 07:00:19;;;;;;;10.63;3.10;;;;;;;;;;5013778;28;20030;-58
2023/07/03 07:02:44;;;;;;;17.92;4.40;;;;;;;;;;5013332;28;20545;-58
2023/07/03 07:05:10;;;;;;;14.85;3.20;;;;;;;;;;5013732;28;20359;-59
2023/07/03 07:07:35;;;;;;;16.30;3.67;;;;;;;;;;5018965;28;20093;-59
2023/07/03 07:10:00;;;;;;;12.90;3.30;;;;;;;;;;5032976;28;20056;-59
2023/07/03 07:12:25;;;;;;;14.48;3.70;;;;;;;;;;5033405;28;20079;-59
2023/07/03 07:14:51;;;;;;;13.88;3.90;;;;;;;;;;5033084;28;20070;-59
2023/07/03 07:17:16;;;;;;;16.10;3.05;;;;;;;;;;5033420;28;20048;-59
2023/07/03 07:19:41;;;;;;;18.80;3.63;;;;;;;;;;5033196;28;20029;-59
2023/07/03 07:22:07;;;;;;;12.40;3.33;;;;;;;;;;5033014;28;20014;-59
2023/07/03 07:24:32;;;;;;;14.80;3.22;;;;;;;;;;5032776;28;20029;-60
2023/07/03 07:26:59;;;;;;;15.57;3.38;;;;;;;;;;5029820;28;20137;-60
2023/07/03 07:29:25;;;;;;;12.00;3.08;;;;;;;;;;5032982;28;20079;-60
2023/07/03 07:31:52;;;;;;;13.20;3.17;;;;;;;;;;5033203;28;20022;-61
2023/07/03 07:34:18;;;;;;;11.65;3.08;;;;;;;;;;5033223;28;20021;-61
2023/07/03 07:36:43;;;;;;;13.48;3.00;;;;;;;;;;5033145;28;20026;-59
2023/07/03 07:39:08;;;;;;;9.38;2.65;;;;;;;;;;5032725;28;20017;-58
2023/07/03 07:41:34;;;;;;;12.40;2.85;;;;;;;;;;5032736;28;20105;-60
2023/07/03 07:43:59;;;;;;;17.08;3.35;;;;;;;;;;5032801;28;20112;-59
2023/07/03 07:46:27;;;;;;;14.02;3.15;;;;;;;;;;5031767;28;20022;-59
2023/07/03 07:48:53;;;;;;;15.52;3.70;;;;;;;;;;5032684;28;20049;-59
2023/07/03 07:51:18;;;;;;;17.42;3.22;;;;;;;;;;5033037;28;20017;-60
2023/07/03 07:53:43;;;;;;;14.27;3.00;;;;;;;;;;5032695;28;20045;-59
2023/07/03 07:56:10;;;;;;;10.23;2.72;;;;;;;;;;5032996;28;20091;-59
2023/07/03 07:58:35;;;;;;;9.20;2.83;;;;;;;;;;5031293;28;20049;-59
2023/07/03 08:01:00;;;;;;;9.27;2.50;;;;;;;;;;5032772;28;20366;-59
2023/07/03 08:03:26;;;;;;;11.48;3.17;;;;;;;;;;5036196;28;20409;-58
2023/07/03 08:05:59;;;;;;;13.95;3.28;;;;;;;;;;5036676;28;20036;-59
2023/07/03 08:08:26;;;;;;;11.80;3.15;;;;;;;;;;5025238;28;20033;-61
2023/07/03 08:10:58;;;;;;;7.93;2.33;;;;;;;;;;5036635;28;20021;-61
2023/07/03 08:13:24;;;;;;;11.95;3.25;;;;;;;;;;5034561;28;20036;-61
2023/07/03 08:15:49;;;;;;;10.40;2.30;;;;;;;;;;5036604;28;20026;-61
2023/07/03 08:18:15;;;;;;;13.70;2.70;;;;;;;;;;5032108;28;20030;-61
2023/07/03 08:20:41;;;;;;;13.82;2.60;;;;;;;;;;5016744;28;20371;-60
2023/07/03 08:23:06;;;;;;;10.85;2.55;;;;;;;;;;5016713;28;20022;-60
2023/07/03 08:25:31;;;;;;;7.38;2.28;;;;;;;;;;5016559;28;20094;-59
2023/07/03 08:27:57;;;;;;;9.15;2.13;;;;;;;;;;5016229;28;20429;-60
2023/07/03 08:30:23;;;;;;;12.30;2.50;;;;;;;;;;5016597;28;20049;-59
2023/07/03 08:32:48;;;;;;;10.18;2.28;;;;;;;;;;5018670;28;20452;-59
2023/07/03 08:35:13;;;;;;;7.43;1.73;;;;;;;;;;5016475;28;20022;-59
2023/07/03 08:37:39;;;;;;;9.50;1.80;;;;;;;;;;5016143;28;20046;-59
2023/07/03 08:40:05;;;;;;;7.00;1.75;;;;;;;;;;5015872;28;20049;-59
2023/07/03 08:42:37;;;;;;;5.28;1.50;;;;;;;;;;5015866;28;20010;-59
2023/07/03 08:45:04;;;;;;;8.50;1.92;;;;;;;;;;5016006;28;20075;-59
2023/07/03 08:47:30;;;;;;;6.85;1.80;;;;;;;;;;5016007;28;20021;-59
2023/07/03 08:49:57;;;;;;;11.98;2.28;;;;;;;;;;5016192;28;20048;-59
2023/07/03 08:52:26;;;;;;;9.00;2.20;;;;;;;;;;5015704;28;20026;-60
2023/07/03 08:54:52;;;;;;;11.25;2.60;;;;;;;;;;5016113;28;20068;-60
2023/07/03 08:57:17;;;;;;;9.73;2.22;;;;;;;;;;5016047;28;20018;-60
2023/07/03 08:59:42;;;;;;;7.20;1.85;;;;;;;;;;5015892;28;20105;-60
2023/07/03 09:02:40;;;;;;;10.48;2.67;;;;;;;;;;5015308;28;20093;-60
2023/07/03 09:05:11;;;;;;;12.20;2.40;;;;;;;;;;5001713;28;20389;-60
2023/07/03 09:07:48;;;;;;;11.80;2.72;;;;;;;;;;5035551;28;20413;-59
2023/07/03 09:10:19;;;;;;;9.20;2.20;;;;;;;;;;5035140;28;20025;-59
2023/07/03 09:12:54;;;;;;;10.35;2.22;;;;;;;;;;5035060;28;20045;-60
2023/07/03 09:15:49;;;;;;;9.52;2.38;;;;;;;;;;5035396;28;20033;-60
2023/07/03 09:18:17;;;;;;;7.18;1.73;;;;;;;;;;5017712;28;20590;-59
2023/07/03 09:20:43;;;;;;;7.47;1.88;;;;;;;;;;5035322;28;20014;-60
2023/07/03 09:23:26;;;;;;;12.25;2.42;;;;;;;;;;5035325;28;20025;-61
2023/07/03 09:26:00;;;;;;;8.63;2.03;;;;;;;;;;5035263;28;20373;-61
2023/07/03 09:28:26;;;;;;;10.02;2.05;;;;;;;;;;5035227;28;20045;-61
2023/07/03 09:30:53;;;;;;;10.30;2.47;;;;;;;;;;5030519;28;20548;-61
2023/07/03 09:33:18;;;;;;;11.40;2.20;;;;;;;;;;5015294;28;20107;-60
2023/07/03 09:35:44;;;;;;;5.20;1.50;;;;;;;;;;5015273;28;20419;-60
2023/07/03 09:38:15;;;;;;;8.85;2.10;;;;;;;;;;5031532;28;20104;-59
2023/07/03 09:40:42;;;;;;;10.15;1.95;;;;;;;;;;5035066;28;20047;-59
2023/07/03 09:43:15;;;;;;;8.23;2.05;;;;;;;;;;5034579;28;20021;-60
2023/07/03 09:45:41;;;;;;;7.80;1.90;;;;;;;;;;5034523;28;20013;-61
2023/07/03 09:48:22;;;;;;;7.30;1.90;;;;;;;;;;5034594;28;20037;-62
2023/07/03 09:50:47;;;;;;;9.85;2.25;;;;;;;;;;5033176;28;20033;-63
2023/07/03 09:53:18;;;;;;;11.93;2.30;;;;;;;;;;5034736;28;20465;-63
2023/07/03 09:55:43;;;;;;;12.80;2.58;;;;;;;;;;5020537;28;20036;-63
2023/07/03 09:58:16;;;;;;;9.57;1.90;;;;;;;;;;5014514;28;20093;-60
2023/07/03 10:00:43;;;;;;;10.15;2.17;;;;;;;;;;5014537;28;20156;-60
2023/07/03 10:03:08;;;;;;;12.05;2.22;;;;;;;;;;5015183;28;20120;-60
2023/07/03 10:05:33;;;;;;;8.55;2.10;;;;;;;;;;5031221;28;20017;-61
2023/07/03 10:08:04;;;;;;;11.60;2.22;;;;;;;;;;5034447;28;20017;-62
2023/07/03 10:10:33;;;;;;;16.40;2.63;;;;;;;;;;5020766;28;20113;-62
2023/07/03 10:13:20;;;;;;;9.65;2.10;;;;;;;;;;5034435;28;20426;-63
2023/07/03 10:15:46;;;;;;;12.32;1.80;;;;;;;;;;5034284;28;20018;-63
2023/07/03 10:18:15;;;;;;;12.55;2.17;;;;;;;;;;5034176;28;20104;-63
2023/07/03 10:20:44;;;;;;;8.30;2.25;;;;;;;;;;5032175;28;20024;-63
2023/07/03 10:23:11;;;;;;;8.60;2.33;;;;;;;;;;5034029;28;20428;-61
2023/07/03 10:25:38;;;;;;;7.35;2.10;;;;;;;;;;5033477;28;20071;-61
2023/07/03 10:28:06;;;;;;;9.25;2.30;;;;;;;;;;5034154;28;20473;-62
2023/07/03 10:30:33;;;;;;;10.15;2.17;;;;;;;;;;5033772;28;20041;-62
2023/07/03 10:32:59;;;;;;;9.43;2.50;;;;;;;;;;5030797;28;20508;-62
2023/07/03 10:35:27;;;;;;;8.27;2.13;;;;;;;;;;5033544;28;20021;-61
2023/07/03 10:37:59;;;;;;;7.80;1.70;;;;;;;;;;5033994;28;20509;-61
2023/07/03 10:40:44;;;;;;;9.63;2.03;;;;;;;;;;5033867;28;20428;-61
2023/07/03 10:43:10;;;;;;;10.23;2.33;;;;;;;;;;4991950;28;20495;-60
2023/07/03 10:45:37;;;;;;;8.77;2.03;;;;;;;;;;4989529;28;20113;-60
2023/07/03 10:48:07;;;;;;;9.80;2.05;;;;;;;;;;4981856;28;20034;-60
2023/07/03 10:50:39;;;;;;;8.97;2.00;;;;;;;;;;4984331;28;20201;-60
2023/07/03 10:53:08;;;;;;;5.90;1.25;;;;;;;;;;4979478;28;20274;-61
2023/07/03 10:55:39;;;;;;;6.07;1.80;;;;;;;;;;4983083;28;20022;-61
2023/07/03 10:58:18;;;;;;;7.00;1.92;;;;;;;;;;4980308;28;20622;-58
2023/07/03 11:00:53;;;;;;;8.15;1.83;;;;;;;;;;4979638;28;20484;-59
2023/07/03 11:03:44;;;;;;;5.70;1.55;;;;;;;;;;4985351;28;20510;-59
2023/07/03 11:06:13;;;;;;;8.70;2.00;;;;;;;;;;4962032;28;20527;-59
2023/07/03 11:08:46;;;;;;;7.45;1.63;;;;;;;;;;4977651;28;20057;-59
2023/07/03 11:11:41;;;;;;;7.95;2.17;;;;;;;;;;4978496;28;20022;-59
2023/07/03 11:14:13;;;;;;;8.20;2.10;;;;;;;;;;4930247;28;20403;-60
2023/07/03 11:16:52;;;;;;;6.90;1.80;;;;;;;;;;4984454;28;20095;-59
2023/07/03 11:19:32;;;;;;;5.65;1.60;;;;;;;;;;4988948;28;20030;-60
2023/07/03 11:22:18;;;;;;;8.35;2.08;;;;;;;;;;5019386;28;20018;-61
2023/07/03 11:25:02;;;;;;;6.72;1.80;;;;;;;;;;5025151;28;20108;-65
2023/07/03 11:27:38;;;;;;;8.50;2.25;;;;;;;;;;5025567;28;20047;-63
2023/07/03 11:30:04;;;;;;;8.70;2.00;;;;;;;;;;5032701;28;20104;-63
2023/07/03 11:32:30;;;;;;;9.40;2.10;;;;;;;;;;5033109;28;20096;-64
2023/07/03 11:34:55;;;;;;;10.63;2.40;;;;;;;;;;5033175;28;20509;-63
2023/07/03 11:37:44;;;;;;;14.60;2.65;;;;;;;;;;5035610;28;20029;-62
2023/07/03 11:40:27;;;;;;;6.57;1.95;;;;;;;;;;5035523;28;20026;-63
2023/07/03 11:42:53;;;;;;;9.27;2.10;;;;;;;;;;5017415;28;20046;-63
2023/07/03 11:45:26;;;;;;;9.32;2.20;;;;;;;;;;5017320;28;20021;-63
2023/07/03 11:47:52;;;;;;;12.57;2.33;;;;;;;;;;5017408;28;20382;-62
2023/07/03 11:50:25;;;;;;;7.18;1.75;;;;;;;;;;5017276;28;20022;-63
2023/07/03 11:52:51;;;;;;;10.93;2.47;;;;;;;;;;5016965;28;20028;-63
2023/07/03 11:55:18;;;;;;;10.38;2.42;;;;;;;;;;5017171;28;20030;-62
2023/07/03 11:57:45;;;;;;;9.73;2.20;;;;;;;;;;5019236;28;20105;-62
2023/07/03 12:00:29;;;;;;;8.07;2.17;;;;;;;;;;5029641;28;20021;-62
2023/07/03 12:03:02;;;;;;;8.57;1.83;;;;;;;;;;5036425;28;20049;-62
2023/07/03 12:06:04;;;;;;;11.40;2.53;;;;;;;;;;5035868;28;20028;-62
2023/07/03 12:08:39;;;;;;;10.30;2.08;;;;;;;;;;5014378;28;20021;-62
2023/07/03 12:11:05;;;;;;;10.25;2.20;;;;;;;;;;5014464;28;20030;-63
2023/07/03 12:13:46;;;;;;;8.88;2.28;;;;;;;;;;5014342;28;20048;-62
2023/07/03 12:16:16;;;;;;;14.35;1.95;;;;;;;;;;5014363;28;20034;-61
2023/07/03 12:18:41;;;;;;;8.65;2.00;;;;;;;;;;5014256;28;20030;-62
2023/07/03 12:21:06;;;;;;;7.00;1.73;;;;;;;;;;5014441;28;20018;-63
2023/07/03 12:23:51;;;;;;;7.22;1.73;;;;;;;;;;5014165;28;20034;-62
2023/07/03 12:26:16;;;;;;;5.68;1.77;;;;;;;;;;5012580;28;20745;-62
2023/07/03 12:28:42;;;;;;;7.60;1.95;;;;;;;;;;5014061;28;20042;-62
2023/07/03 12:31:08;;;;;;;7.88;1.98;;;;;;;;;;5014188;28;20026;-62
2023/07/03 12:33:33;;;;;;;10.60;2.13;;;;;;;;;;5014047;28;20048;-62
2023/07/03 12:35:59;;;;;;;8.25;1.92;;;;;;;;;;5013949;28;20038;-62
2023/07/03 12:38:24;;;;;;;12.93;2.13;;;;;;;;;;5010716;28;20026;-61
2023/07/03 12:40:49;;;;;;;9.13;2.10;;;;;;;;;;5013920;28;20022;-61
2023/07/03 12:43:16;;;;;;;11.77;2.20;;;;;;;;;;5032181;28;20026;-61
2023/07/03 12:45:41;;;;;;;11.50;2.20;;;;;;;;;;5035580;28;20017;-61
2023/07/03 12:48:07;;;;;;;7.93;2.30;;;;;;;;;;5035465;28;20024;-61
2023/07/03 12:50:52;;;;;;;9.60;2.35;;;;;;;;;;5035541;28;20021;-62
2023/07/03 12:53:18;;;;;;;10.25;2.45;;;;;;;;;;5035620;28;20024;-61
2023/07/03 12:56:04;;;;;;;11.20;2.28;;;;;;;;;;5035788;28;20018;-61
2023/07/03 12:58:30;;;;;;;9.00;2.17;;;;;;;;;;5035074;28;20052;-61
2023/07/03 13:01:03;;;;;;;13.68;2.20;;;;;;;;;;5035547;28;20014;-63
2023/07/03 13:03:29;;;;;;;8.43;2.20;;;;;;;;;;5033028;28;20042;-62
2023/07/03 13:05:54;;;;;;;10.65;2.22;;;;;;;;;;5035344;28;20017;-62
2023/07/03 13:08:19;;;;;;;8.95;2.67;;;;;;;;;;5035227;28;20021;-62
2023/07/03 13:10:58;;;;;;;10.70;2.40;;;;;;;;;;5035542;28;20022;-62
2023/07/03 13:13:23;;;;;;;8.50;1.77;;;;;;;;;;5035496;28;20025;-62
2023/07/03 13:15:49;;;;;;;12.82;2.10;;;;;;;;;;5035424;28;20152;-62
2023/07/03 13:18:16;;;;;;;8.73;2.35;;;;;;;;;;5034943;28;20033;-62
2023/07/03 13:20:57;;;;;;;10.10;2.10;;;;;;;;;;5035274;28;20401;-62
2023/07/03 13:23:34;;;;;;;7.63;1.98;;;;;;;;;;5033037;28;20022;-62
2023/07/03 13:26:00;;;;;;;8.75;1.92;;;;;;;;;;5035324;28;20484;-62
2023/07/03 13:28:27;;;;;;;7.40;2.03;;;;;;;;;;5034851;28;20017;-62
2023/07/03 13:31:18;;;;;;;10.55;2.53;;;;;;;;;;5035183;28;20140;-61
2023/07/03 13:33:58;;;;;;;6.93;1.83;;;;;;;;;;5034751;28;20045;-62
2023/07/03 13:36:28;;;;;;;9.80;2.00;;;;;;;;;;5035114;28;20028;-62
2023/07/03 13:39:00;;;;;;;8.27;1.77;;;;;;;;;;5034714;28;20100;-62
2023/07/03 13:41:25;;;;;;;9.10;2.00;;;;;;;;;;5034107;28;20014;-62
2023/07/03 13:43:54;;;;;;;9.25;2.00;;;;;;;;;;5034883;28;20409;-62
2023/07/03 13:46:19;;;;;;;9.48;2.15;;;;;;;;;;5032923;28;20108;-63
2023/07/03 13:48:44;;;;;;;9.13;1.73;;;;;;;;;;5034867;28;20053;-62
2023/07/03 13:51:09;;;;;;;10.48;1.85;;;;;;;;;;5031521;28;20014;-62
2023/07/03 13:53:35;;;;;;;8.95;2.15;;;;;;;;;;5034712;28;20022;-62
2023/07/03 13:56:00;;;;;;;9.00;2.05;;;;;;;;;;5034720;28;20500;-62
2023/07/03 13:58:26;;;;;;;9.93;2.05;;;;;;;;;;5032999;28;20025;-62
2023/07/03 14:00:51;;;;;;;10.32;2.22;;;;;;;;;;5032966;28;20482;-62
2023/07/03 14:03:16;;;;;;;8.98;2.25;;;;;;;;;;5033472;28;20045;-62
2023/07/03 14:05:42;;;;;;;9.05;2.40;;;;;;;;;;5034583;28;20025;-62
2023/07/03 14:08:07;;;;;;;9.38;2.05;;;;;;;;;;5034009;28;20017;-62
2023/07/03 14:10:32;;;;;;;7.45;2.05;;;;;;;;;;5034279;28;20024;-62
2023/07/03 14:12:58;;;;;;;9.48;2.13;;;;;;;;;;5034045;28;20029;-62
2023/07/03 14:15:25;;;;;;;9.05;2.05;;;;;;;;;;5034279;28;20020;-62
2023/07/03 14:17:51;;;;;;;8.25;1.60;;;;;;;;;;5032233;28;20017;-62
2023/07/03 14:20:16;;;;;;;9.55;2.58;;;;;;;;;;5034139;28;20043;-61
2023/07/03 14:22:41;;;;;;;11.48;2.85;;;;;;;;;;5033913;28;20075;-61
2023/07/03 14:25:08;;;;;;;8.73;1.98;;;;;;;;;;5033817;28;20025;-61
2023/07/03 14:27:34;;;;;;;11.02;2.25;;;;;;;;;;5034035;28;20017;-62
2023/07/03 14:30:00;;;;;;;5.20;1.95;;;;;;;;;;5034050;28;20469;-62
2023/07/03 14:32:25;;;;;;;9.98;2.17;;;;;;;;;;5033731;28;20030;-61
2023/07/03 14:34:50;;;;;;;10.10;2.65;;;;;;;;;;5033958;28;20025;-61
2023/07/03 14:37:15;;;;;;;8.23;2.17;;;;;;;;;;5033981;28;20381;-62
2023/07/03 14:39:41;;;;;;;10.20;2.78;;;;;;;;;;5033736;28;20017;-61